sensor_id;sensor_type;location;lat;lon;timestamp;temperature;humidity
20795;DHT22;28087;-33.874;151.240;2023-02-13T16:19:25;21.70;99.90
20795;DHT22;28087;-33.874;151.240;2023-02-13T16:22:13;21.70;99.90
20795;DHT22;28087;-33.874;151.240;2023-02-13T16:24:52;21.70;99.90
20795;DHT22;28087;-33.874;151.240;2023-02-13T16:27:30;21.60;99.90
20795;DHT22;28087;-33.874;151.240;2023-02-13T16:30:17;21.60;99.90
20795;DHT22;28087;-33.874;151.240;2023-02-13T16:33:20;21.60;99.90
20795;DHT22;28087;-33.874;151.240;2023-02-13T16:35:58;21.60;99.90
20795;DHT22;28087;-33.874;151.240;2023-02-13T16:38:35;21.60;99.90
20795;DHT22;28087;-33.874;151.240;2023-02-13T16:41:28;21.60;99.90
20795;DHT22;28087;-33.874;151.240;2023-02-13T16:44:22;21.60;99.90
20795;DHT22;28087;-33.874;151.240;2023-02-13T16:47:00;21.60;99.90
20795;DHT22;28087;-33.874;151.240;2023-02-13T16:49:36;21.60;99.90
20795;DHT22;28087;-33.874;151.240;2023-02-13T16:52:16;21.50;99.90
20795;DHT22;28087;-33.874;151.240;2023-02-13T16:54:54;21.50;99.90
20795;DHT22;28087;-33.874;151.240;2023-02-13T16:57:33;21.40;99.90
20795;DHT22;28087;-33.874;151.240;2023-02-13T17:00:17;21.50;99.90
20795;DHT22;28087;-33.874;151.240;2023-02-13T17:02:55;21.40;99.90
20795;DHT22;28087;-33.874;151.240;2023-02-13T17:05:31;21.40;99.90
20795;DHT22;28087;-33.874;151.240;2023-02-13T17:08:08;21.40;99.90
20795;DHT22;28087;-33.874;151.240;2023-02-13T17:11:01;21.40;99.90
20795;DHT22;28087;-33.874;151.240;2023-02-13T17:13:37;21.30;99.90
20795;DHT22;28087;-33.874;151.240;2023-02-13T17:16:19;21.20;99.90
20795;DHT22;28087;-33.874;151.240;2023-02-13T17:18:55;21.30;99.90
20795;DHT22;28087;-33.874;151.240;2023-02-13T17:21:32;21.10;99.90
20795;DHT22;28087;-33.874;151.240;2023-02-13T17:24:08;21.00;99.90
20795;DHT22;28087;-33.874;151.240;2023-02-13T17:26:45;21.00;99.90
20795;DHT22;28087;-33.874;151.240;2023-02-13T17:29:21;21.00;99.90
20795;DHT22;28087;-33.874;151.240;2023-02-13T17:31:59;21.00;99.90
20795;DHT22;28087;-33.874;151.240;2023-02-13T17:34:35;21.00;99.90
20795;DHT22;28087;-33.874;151.240;2023-02-13T17:37:16;21.10;99.90
20795;DHT22;28087;-33.874;151.240;2023-02-13T17:39:52;21.00;99.90
20795;DHT22;28087;-33.874;151.240;2023-02-13T17:42:29;21.00;99.90
20795;DHT22;28087;-33.874;151.240;2023-02-13T17:45:05;21.00;99.90
20795;DHT22;28087;-33.874;151.240;2023-02-13T17:47:42;21.00;99.90
20795;DHT22;28087;-33.874;151.240;2023-02-13T17:50:19;21.20;99.90
20795;DHT22;28087;-33.874;151.240;2023-02-13T17:52:55;20.90;99.90
20795;DHT22;28087;-33.874;151.240;2023-02-13T17:55:31;20.90;99.90
20795;DHT22;28087;-33.874;151.240;2023-02-13T17:58:08;20.90;99.90
20795;DHT22;28087;-33.874;151.240;2023-02-13T18:00:44;20.90;99.90
20795;DHT22;28087;-33.874;151.240;2023-02-13T18:03:21;20.90;99.90
20795;DHT22;28087;-33.874;151.240;2023-02-13T18:05:57;20.90;99.90
20795;DHT22;28087;-33.874;151.240;2023-02-13T18:08:33;20.90;99.90
20795;DHT22;28087;-33.874;151.240;2023-02-13T18:11:12;21.00;99.90
20795;DHT22;28087;-33.874;151.240;2023-02-13T18:13:48;21.00;99.90
20795;DHT22;28087;-33.874;151.240;2023-02-13T18:16:23;21.00;99.90
20795;DHT22;28087;-33.874;151.240;2023-02-13T18:19:01;20.90;99.90
20795;DHT22;28087;-33.874;151.240;2023-02-13T18:21:38;20.80;99.90
20795;DHT22;28087;-33.874;151.240;2023-02-13T18:24:13;20.80;99.90
20795;DHT22;28087;-33.874;151.240;2023-02-13T18:26:50;20.90;99.90
20795;DHT22;28087;-33.874;151.240;2023-02-13T18:29:27;20.90;99.90
20795;DHT22;28087;-33.874;151.240;2023-02-13T18:32:03;20.90;99.90
20795;DHT22;28087;-33.874;151.240;2023-02-13T18:34:42;20.90;99.90
20795;DHT22;28087;-33.874;151.240;2023-02-13T18:37:18;20.80;99.90
20795;DHT22;28087;-33.874;151.240;2023-02-13T18:39:54;20.80;99.90
20795;DHT22;28087;-33.874;151.240;2023-02-13T18:42:30;20.80;99.90
20795;DHT22;28087;-33.874;151.240;2023-02-13T18:45:06;20.80;99.90
20795;DHT22;28087;-33.874;151.240;2023-02-13T18:47:42;20.70;99.90
20795;DHT22;28087;-33.874;151.240;2023-02-13T18:50:20;20.70;99.90
20795;DHT22;28087;-33.874;151.240;2023-02-13T18:52:55;20.80;99.90
20795;DHT22;28087;-33.874;151.240;2023-02-13T18:55:31;20.70;99.90
20795;DHT22;28087;-33.874;151.240;2023-02-13T18:58:06;20.70;99.90
20795;DHT22;28087;-33.874;151.240;2023-02-13T19:00:43;20.70;99.90
20795;DHT22;28087;-33.874;151.240;2023-02-13T19:03:19;20.70;99.90
20795;DHT22;28087;-33.874;151.240;2023-02-13T19:05:56;20.80;99.90
20795;DHT22;28087;-33.874;151.240;2023-02-13T19:08:31;20.70;99.90
20795;DHT22;28087;-33.874;151.240;2023-02-13T19:11:09;20.80;99.90
20795;DHT22;28087;-33.874;151.240;2023-02-13T19:13:46;20.70;99.90
20795;DHT22;28087;-33.874;151.240;2023-02-13T19:16:23;20.70;99.90
20795;DHT22;28087;-33.874;151.240;2023-02-13T19:19:00;20.70;99.90
20795;DHT22;28087;-33.874;151.240;2023-02-13T19:21:38;20.70;99.90
20795;DHT22;28087;-33.874;151.240;2023-02-13T19:24:15;20.60;99.90
20795;DHT22;28087;-33.874;151.240;2023-02-13T19:26:50;20.60;99.90
20795;DHT22;28087;-33.874;151.240;2023-02-13T19:29:26;20.60;99.90
20795;DHT22;28087;-33.874;151.240;2023-02-13T19:32:02;20.60;99.90
20795;DHT22;28087;-33.874;151.240;2023-02-13T19:34:38;20.60;99.90
20795;DHT22;28087;-33.874;151.240;2023-02-13T19:37:15;20.60;99.90
20795;DHT22;28087;-33.874;151.240;2023-02-13T19:39:50;20.60;99.90
20795;DHT22;28087;-33.874;151.240;2023-02-13T19:42:28;20.50;99.90
20795;DHT22;28087;-33.874;151.240;2023-02-13T19:45:04;20.50;99.90
20795;DHT22;28087;-33.874;151.240;2023-02-13T19:47:40;20.50;99.90
20795;DHT22;28087;-33.874;151.240;2023-02-13T19:50:15;20.50;99.90
20795;DHT22;28087;-33.874;151.240;2023-02-13T19:52:53;20.50;99.90
20795;DHT22;28087;-33.874;151.240;2023-02-13T19:55:29;20.40;99.90
20795;DHT22;28087;-33.874;151.240;2023-02-13T19:58:04;20.40;99.90
20795;DHT22;28087;-33.874;151.240;2023-02-13T20:00:39;20.40;99.90
20795;DHT22;28087;-33.874;151.240;2023-02-13T20:03:17;20.50;99.90
20795;DHT22;28087;-33.874;151.240;2023-02-13T20:05:56;20.50;99.90
20795;DHT22;28087;-33.874;151.240;2023-02-13T20:08:34;20.50;99.90
20795;DHT22;28087;-33.874;151.240;2023-02-13T20:11:14;20.50;99.90
20795;DHT22;28087;-33.874;151.240;2023-02-13T20:13:54;20.60;99.90
20795;DHT22;28087;-33.874;151.240;2023-02-13T20:16:32;20.70;99.90
20795;DHT22;28087;-33.874;151.240;2023-02-13T20:19:09;20.60;99.90
20795;DHT22;28087;-33.874;151.240;2023-02-13T20:21:47;20.70;99.90
20795;DHT22;28087;-33.874;151.240;2023-02-13T20:24:26;20.70;99.90
20795;DHT22;28087;-33.874;151.240;2023-02-13T20:27:02;20.80;99.90
20795;DHT22;28087;-33.874;151.240;2023-02-13T20:29:40;20.80;99.90
20795;DHT22;28087;-33.874;151.240;2023-02-13T20:32:16;20.90;99.90
20795;DHT22;28087;-33.874;151.240;2023-02-13T20:34:52;21.00;99.90
20795;DHT22;28087;-33.874;151.240;2023-02-13T20:37:30;21.00;99.90
20795;DHT22;28087;-33.874;151.240;2023-02-13T20:40:08;21.00;99.90
20795;DHT22;28087;-33.874;151.240;2023-02-13T20:42:44;21.00;99.90
20795;DHT22;28087;-33.874;151.240;2023-02-13T20:45:20;21.00;99.90
20795;DHT22;28087;-33.874;151.240;2023-02-13T20:47:55;21.00;99.90
20795;DHT22;28087;-33.874;151.240;2023-02-13T20:50:31;21.00;99.90
20795;DHT22;28087;-33.874;151.240;2023-02-13T20:53:06;21.10;99.90
20795;DHT22;28087;-33.874;151.240;2023-02-13T20:55:44;21.10;99.90
20795;DHT22;28087;-33.874;151.240;2023-02-13T20:58:20;21.10;99.90
20795;DHT22;28087;-33.874;151.240;2023-02-13T21:00:55;21.10;99.90
20795;DHT22;28087;-33.874;151.240;2023-02-13T21:03:32;21.10;99.90
20795;DHT22;28087;-33.874;151.240;2023-02-13T21:06:09;21.10;99.90
20795;DHT22;28087;-33.874;151.240;2023-02-13T21:08:46;21.20;99.90
20795;DHT22;28087;-33.874;151.240;2023-02-13T21:11:23;21.10;99.90
20795;DHT22;28087;-33.874;151.240;2023-02-13T21:13:59;21.20;99.90
20795;DHT22;28087;-33.874;151.240;2023-02-13T21:16:36;21.30;99.90
20795;DHT22;28087;-33.874;151.240;2023-02-13T21:19:15;21.30;99.90
20795;DHT22;28087;-33.874;151.240;2023-02-13T21:21:54;21.40;99.90
20795;DHT22;28087;-33.874;151.240;2023-02-13T21:24:43;21.30;99.90
20795;DHT22;28087;-33.874;151.240;2023-02-13T21:27:21;21.20;99.90
20795;DHT22;28087;-33.874;151.240;2023-02-13T21:29:57;21.20;99.90
20795;DHT22;28087;-33.874;151.240;2023-02-13T21:32:32;21.20;99.90
20795;DHT22;28087;-33.874;151.240;2023-02-13T21:35:08;21.20;99.90
20795;DHT22;28087;-33.874;151.240;2023-02-13T21:37:44;21.20;99.90
20795;DHT22;28087;-33.874;151.240;2023-02-13T21:40:20;21.20;99.90
20795;DHT22;28087;-33.874;151.240;2023-02-13T21:42:57;21.20;99.90
20795;DHT22;28087;-33.874;151.240;2023-02-13T21:45:33;21.30;99.90
20795;DHT22;28087;-33.874;151.240;2023-02-13T21:48:09;21.20;99.90
20795;DHT22;28087;-33.874;151.240;2023-02-13T21:50:44;21.20;99.90
20795;DHT22;28087;-33.874;151.240;2023-02-13T21:53:20;21.20;99.90
20795;DHT22;28087;-33.874;151.240;2023-02-13T21:55:56;21.20;99.90
20795;DHT22;28087;-33.874;151.240;2023-02-13T21:58:35;21.30;99.90
20795;DHT22;28087;-33.874;151.240;2023-02-13T22:01:12;21.30;99.90
20795;DHT22;28087;-33.874;151.240;2023-02-13T22:03:57;21.40;99.90
20795;DHT22;28087;-33.874;151.240;2023-02-13T22:06:34;21.40;99.90
20795;DHT22;28087;-33.874;151.240;2023-02-13T22:09:12;21.50;99.90
20795;DHT22;28087;-33.874;151.240;2023-02-13T22:11:49;21.50;99.90
20795;DHT22;28087;-33.874;151.240;2023-02-13T22:14:29;21.60;99.90
20795;DHT22;28087;-33.874;151.240;2023-02-13T22:17:04;21.80;99.90
20795;DHT22;28087;-33.874;151.240;2023-02-13T22:19:40;21.90;99.90
20795;DHT22;28087;-33.874;151.240;2023-02-13T22:22:16;21.90;99.90
20795;DHT22;28087;-33.874;151.240;2023-02-13T22:24:52;22.10;99.90
20795;DHT22;28087;-33.874;151.240;2023-02-13T22:27:27;22.10;99.90
